Westville, Connecticut
Current Conditions -  °F | °C
As of 11:53 PM on Tuesday 25 Nov 2014 (Local Time) from KHVN Reporting Station
Clear Clear  
Wind Chill: 11°   Ceiling: Unl
Heat Index: 11°   Visibility: 10mi
Dew Point:   Wind: 0mph
Humidity: 52%   Direction: NA
Pressure: 30.15"   Gusts: NA
Location:  41.3258°N, 72.9705°W
Report Text: KHVN 260453Z AUTO 00000KT 10SM CLR 11/01 A3015 RMK AO2 SLP210 T01060011 401780094
Loading
Personal Weather Stations






























Interactive Weather Map New forecast layout! Learn more

10-Day Weather Forecast

Advertisements
Track Severe Weather on mobile